Berlin, NJ (08009)

11:24 AM EST on January 17, 2017 (GMT -0500)
West Berlin | | Change Station

Elev 177 ft 39.80 °N, 74.92 °W | Updated 17 seconds ago

Rain
Rain
41.5 °F
Feels Like 42 °F
N
0.0
Wind Variable Wind from SSW

Today
High -- | Low -- °F
--% Chance of Precip.
Yesterday
High -- | Low -- °F
Precip. -- in
Pressure 30.21 in
Visibility 8.0 miles
Clouds Overcast 1500 ft
Windchill 42 °F
Dew Point 38 °F
Humidity 90%
Rainfall 0.00 in
Snow Depth Not available.
7:18 AM 5:02 PM
Waning Gibbous, 71% visible
METAR KVAY 171554Z AUTO 00000KT 8SM -RA OVC015 05/01 A3021 RMK AO2 RAB35 SLP230 P0000 T00500011 TSNO $
Pressure 30.21 in
Visibility 8.0 miles
Clouds Overcast 1500 ft
Windchill 42 °F
Dew Point 38 °F
Humidity 90%
Rainfall 0.00 in
Snow Depth Not available.
7:18 AM 5:02 PM
Waning Gibbous, 71% visible
METAR KVAY 171554Z AUTO 00000KT 8SM -RA OVC015 05/01 A3021 RMK AO2 RAB35 SLP230 P0000 T00500011 TSNO $

Get Your Daily Forecast Email!

Thanks for signing up!

Be on the lookout for a verification email in your inbox.

You'll start receiving the daily forecast at 8 AM.

×

10-Day Weather Forecast

Almanac

Astronomy

Jan. 17, 2017 Rise Set
Actual Time
Civil Twilight
Nautical Twilight
Astronomical Twilight
Moon
Length of Visible Light
Length of Day
Tomorrow will be .
, % of the Moon is Illuminated

Today's Extremes

State Highs State Lows

Community

WunderPhotos

Upload Photos

1,962,540 photos uploaded!

WunderBlog® & News

Nearby

Air Quality

  Air Quality AQ Index Pollutant
Not available.

Snow Depth

Station Depth Elevation

Earthquake Activity

City Distance Mag. Time & Date
Minimum magnitude displayed is 2.5.

Coastal Water Temperatures

Place Temperature

Stations

Nearby Weather Stations

Station Location Temp. Windchill Dew Point Humidity Wind Precip. Elev Updated Type
                   

Watches & Warnings

There are currently no watches in effect.